sensor_id;sensor_type;location;lat;lon;timestamp;P1;durP1;ratioP1;P2;durP2;ratioP2
19024;SDS011;9645;51.448;6.260;2022-10-16T00:01:04;7.13;;;4.77;;
19024;SDS011;9645;51.448;6.260;2022-10-16T00:03:32;17.60;;;5.00;;
19024;SDS011;9645;51.448;6.260;2022-10-16T00:06:00;5.23;;;4.00;;
19024;SDS011;9645;51.448;6.260;2022-10-16T00:08:27;7.78;;;4.07;;
19024;SDS011;9645;51.448;6.260;2022-10-16T00:10:58;9.88;;;4.90;;
19024;SDS011;9645;51.448;6.260;2022-10-16T00:13:27;6.35;;;3.50;;
19024;SDS011;9645;51.448;6.260;2022-10-16T00:15:55;4.90;;;3.15;;
19024;SDS011;9645;51.448;6.260;2022-10-16T00:18:22;7.43;;;3.80;;
19024;SDS011;9645;51.448;6.260;2022-10-16T00:20:49;11.65;;;4.30;;
19024;SDS011;9645;51.448;6.260;2022-10-16T00:23:16;21.30;;;4.20;;
19024;SDS011;9645;51.448;6.260;2022-10-16T00:25:43;9.23;;;3.93;;
19024;SDS011;9645;51.448;6.260;2022-10-16T00:28:10;8.77;;;4.00;;
19024;SDS011;9645;51.448;6.260;2022-10-16T00:30:39;10.73;;;4.10;;
19024;SDS011;9645;51.448;6.260;2022-10-16T00:33:06;7.80;;;4.32;;
19024;SDS011;9645;51.448;6.260;2022-10-16T00:35:33;4.90;;;3.30;;
19024;SDS011;9645;51.448;6.260;2022-10-16T00:38:00;5.80;;;3.47;;
19024;SDS011;9645;51.448;6.260;2022-10-16T00:40:27;17.67;;;4.00;;
19024;SDS011;9645;51.448;6.260;2022-10-16T00:42:54;7.13;;;3.50;;
19024;SDS011;9645;51.448;6.260;2022-10-16T00:45:21;7.67;;;3.00;;
19024;SDS011;9645;51.448;6.260;2022-10-16T00:47:49;4.80;;;3.20;;
19024;SDS011;9645;51.448;6.260;2022-10-16T00:50:18;5.38;;;3.42;;
19024;SDS011;9645;51.448;6.260;2022-10-16T00:52:50;5.60;;;3.23;;
19024;SDS011;9645;51.448;6.260;2022-10-16T00:55:18;7.93;;;3.50;;
19024;SDS011;9645;51.448;6.260;2022-10-16T00:57:46;8.73;;;3.43;;
19024;SDS011;9645;51.448;6.260;2022-10-16T01:00:16;3.43;;;2.70;;
19024;SDS011;9645;51.448;6.260;2022-10-16T01:02:44;5.65;;;3.22;;
19024;SDS011;9645;51.448;6.260;2022-10-16T01:05:20;5.33;;;3.10;;
19024;SDS011;9645;51.448;6.260;2022-10-16T01:07:49;5.95;;;3.30;;
19024;SDS011;9645;51.448;6.260;2022-10-16T01:10:25;5.28;;;2.88;;
19024;SDS011;9645;51.448;6.260;2022-10-16T01:12:57;4.80;;;3.50;;
19024;SDS011;9645;51.448;6.260;2022-10-16T01:15:28;4.93;;;2.90;;
19024;SDS011;9645;51.448;6.260;2022-10-16T01:18:01;4.55;;;3.28;;
19024;SDS011;9645;51.448;6.260;2022-10-16T01:20:33;3.95;;;3.42;;
19024;SDS011;9645;51.448;6.260;2022-10-16T01:23:06;4.60;;;2.77;;
19024;SDS011;9645;51.448;6.260;2022-10-16T01:25:49;10.17;;;3.00;;
19024;SDS011;9645;51.448;6.260;2022-10-16T01:28:32;5.55;;;2.83;;
19024;SDS011;9645;51.448;6.260;2022-10-16T01:31:02;7.97;;;2.75;;
19024;SDS011;9645;51.448;6.260;2022-10-16T01:33:32;3.80;;;3.00;;
19024;SDS011;9645;51.448;6.260;2022-10-16T01:36:06;6.07;;;2.55;;
19024;SDS011;9645;51.448;6.260;2022-10-16T01:38:38;7.70;;;2.67;;
19024;SDS011;9645;51.448;6.260;2022-10-16T01:41:07;5.03;;;2.50;;
19024;SDS011;9645;51.448;6.260;2022-10-16T01:43:40;2.78;;;2.28;;
19024;SDS011;9645;51.448;6.260;2022-10-16T01:46:10;3.57;;;2.67;;
19024;SDS011;9645;51.448;6.260;2022-10-16T01:48:40;2.80;;;2.37;;
19024;SDS011;9645;51.448;6.260;2022-10-16T01:51:08;3.65;;;2.05;;
19024;SDS011;9645;51.448;6.260;2022-10-16T01:53:37;3.80;;;1.80;;
19024;SDS011;9645;51.448;6.260;2022-10-16T01:56:07;2.85;;;1.83;;
19024;SDS011;9645;51.448;6.260;2022-10-16T01:58:37;6.18;;;2.33;;
19024;SDS011;9645;51.448;6.260;2022-10-16T02:01:09;1.92;;;1.83;;
19024;SDS011;9645;51.448;6.260;2022-10-16T02:03:40;1.63;;;1.53;;
19024;SDS011;9645;51.448;6.260;2022-10-16T02:06:09;6.22;;;2.00;;
19024;SDS011;9645;51.448;6.260;2022-10-16T02:08:36;2.60;;;2.17;;
19024;SDS011;9645;51.448;6.260;2022-10-16T02:11:04;2.10;;;1.90;;
19024;SDS011;9645;51.448;6.260;2022-10-16T02:13:32;6.47;;;1.90;;
19024;SDS011;9645;51.448;6.260;2022-10-16T02:16:05;4.70;;;1.73;;
19024;SDS011;9645;51.448;6.260;2022-10-16T02:18:33;5.10;;;2.10;;
19024;SDS011;9645;51.448;6.260;2022-10-16T02:21:02;2.80;;;2.08;;
19024;SDS011;9645;51.448;6.260;2022-10-16T02:23:39;2.90;;;1.75;;
19024;SDS011;9645;51.448;6.260;2022-10-16T02:26:12;1.92;;;1.83;;
19024;SDS011;9645;51.448;6.260;2022-10-16T02:28:44;7.18;;;1.60;;
19024;SDS011;9645;51.448;6.260;2022-10-16T02:31:16;3.55;;;1.85;;
19024;SDS011;9645;51.448;6.260;2022-10-16T02:33:48;5.70;;;2.20;;
19024;SDS011;9645;51.448;6.260;2022-10-16T02:36:17;3.63;;;2.20;;
19024;SDS011;9645;51.448;6.260;2022-10-16T02:38:44;2.10;;;1.80;;
19024;SDS011;9645;51.448;6.260;2022-10-16T02:41:12;2.00;;;1.85;;
19024;SDS011;9645;51.448;6.260;2022-10-16T02:43:39;2.00;;;1.90;;
19024;SDS011;9645;51.448;6.260;2022-10-16T02:46:06;2.22;;;1.70;;
19024;SDS011;9645;51.448;6.260;2022-10-16T02:48:35;1.75;;;1.65;;
19024;SDS011;9645;51.448;6.260;2022-10-16T02:51:02;15.95;;;2.58;;
19024;SDS011;9645;51.448;6.260;2022-10-16T02:53:29;2.58;;;1.85;;
19024;SDS011;9645;51.448;6.260;2022-10-16T02:55:56;2.07;;;1.77;;
19024;SDS011;9645;51.448;6.260;2022-10-16T02:58:23;7.72;;;1.90;;
19024;SDS011;9645;51.448;6.260;2022-10-16T03:00:50;2.33;;;2.08;;
19024;SDS011;9645;51.448;6.260;2022-10-16T03:03:17;3.25;;;1.92;;
19024;SDS011;9645;51.448;6.260;2022-10-16T03:05:45;2.28;;;2.03;;
19024;SDS011;9645;51.448;6.260;2022-10-16T03:08:12;8.10;;;2.20;;
19024;SDS011;9645;51.448;6.260;2022-10-16T03:10:40;3.57;;;1.70;;
19024;SDS011;9645;51.448;6.260;2022-10-16T03:13:06;2.35;;;2.10;;
19024;SDS011;9645;51.448;6.260;2022-10-16T03:15:33;3.95;;;1.85;;
19024;SDS011;9645;51.448;6.260;2022-10-16T03:18:00;4.18;;;1.70;;
19024;SDS011;9645;51.448;6.260;2022-10-16T03:20:27;2.20;;;2.00;;
19024;SDS011;9645;51.448;6.260;2022-10-16T03:22:56;6.72;;;2.08;;
19024;SDS011;9645;51.448;6.260;2022-10-16T03:25:23;2.95;;;1.90;;
19024;SDS011;9645;51.448;6.260;2022-10-16T03:27:50;2.00;;;1.70;;
19024;SDS011;9645;51.448;6.260;2022-10-16T03:30:16;4.65;;;1.67;;
19024;SDS011;9645;51.448;6.260;2022-10-16T03:32:44;4.40;;;1.77;;
19024;SDS011;9645;51.448;6.260;2022-10-16T03:35:11;1.70;;;1.60;;
19024;SDS011;9645;51.448;6.260;2022-10-16T03:37:38;6.15;;;1.70;;
19024;SDS011;9645;51.448;6.260;2022-10-16T03:40:07;8.02;;;1.85;;
19024;SDS011;9645;51.448;6.260;2022-10-16T03:42:34;3.25;;;1.70;;
19024;SDS011;9645;51.448;6.260;2022-10-16T03:45:01;2.00;;;1.60;;
19024;SDS011;9645;51.448;6.260;2022-10-16T03:47:29;2.47;;;2.00;;
19024;SDS011;9645;51.448;6.260;2022-10-16T03:49:58;6.68;;;2.00;;
19024;SDS011;9645;51.448;6.260;2022-10-16T03:52:24;2.63;;;2.08;;
19024;SDS011;9645;51.448;6.260;2022-10-16T03:54:52;1.95;;;1.80;;
19024;SDS011;9645;51.448;6.260;2022-10-16T03:57:20;5.72;;;2.05;;
19024;SDS011;9645;51.448;6.260;2022-10-16T03:59:47;3.28;;;2.00;;
19024;SDS011;9645;51.448;6.260;2022-10-16T04:02:14;7.32;;;2.30;;
19024;SDS011;9645;51.448;6.260;2022-10-16T04:04:41;7.13;;;1.80;;
19024;SDS011;9645;51.448;6.260;2022-10-16T04:07:08;2.10;;;1.90;;
19024;SDS011;9645;51.448;6.260;2022-10-16T04:09:35;6.47;;;2.20;;
19024;SDS011;9645;51.448;6.260;2022-10-16T04:12:02;3.25;;;1.95;;
19024;SDS011;9645;51.448;6.260;2022-10-16T04:14:30;2.50;;;2.00;;
19024;SDS011;9645;51.448;6.260;2022-10-16T04:16:57;2.38;;;2.17;;
19024;SDS011;9645;51.448;6.260;2022-10-16T04:19:24;3.83;;;2.15;;
19024;SDS011;9645;51.448;6.260;2022-10-16T04:21:51;2.60;;;2.40;;
19024;SDS011;9645;51.448;6.260;2022-10-16T04:24:18;4.35;;;1.80;;
19024;SDS011;9645;51.448;6.260;2022-10-16T04:26:45;1.85;;;1.75;;
19024;SDS011;9645;51.448;6.260;2022-10-16T04:29:12;1.95;;;1.85;;
19024;SDS011;9645;51.448;6.260;2022-10-16T04:31:40;2.47;;;1.92;;
19024;SDS011;9645;51.448;6.260;2022-10-16T04:34:07;4.82;;;2.10;;
19024;SDS011;9645;51.448;6.260;2022-10-16T04:36:34;4.50;;;2.30;;
19024;SDS011;9645;51.448;6.260;2022-10-16T04:39:01;3.35;;;2.17;;
19024;SDS011;9645;51.448;6.260;2022-10-16T04:41:28;2.20;;;1.83;;
19024;SDS011;9645;51.448;6.260;2022-10-16T04:43:55;2.63;;;2.17;;
19024;SDS011;9645;51.448;6.260;2022-10-16T04:46:22;3.53;;;2.00;;
19024;SDS011;9645;51.448;6.260;2022-10-16T04:48:50;5.28;;;2.30;;
19024;SDS011;9645;51.448;6.260;2022-10-16T04:51:17;2.60;;;1.95;;
19024;SDS011;9645;51.448;6.260;2022-10-16T04:53:44;3.38;;;1.80;;
19024;SDS011;9645;51.448;6.260;2022-10-16T04:56:11;4.75;;;2.13;;
19024;SDS011;9645;51.448;6.260;2022-10-16T04:58:40;2.53;;;2.30;;
19024;SDS011;9645;51.448;6.260;2022-10-16T05:01:06;2.47;;;1.80;;
19024;SDS011;9645;51.448;6.260;2022-10-16T05:03:33;4.97;;;2.15;;
19024;SDS011;9645;51.448;6.260;2022-10-16T05:06:04;3.03;;;1.98;;
19024;SDS011;9645;51.448;6.260;2022-10-16T05:08:31;2.60;;;2.00;;
19024;SDS011;9645;51.448;6.260;2022-10-16T05:10:58;4.65;;;1.90;;
19024;SDS011;9645;51.448;6.260;2022-10-16T05:13:26;21.15;;;2.30;;
19024;SDS011;9645;51.448;6.260;2022-10-16T05:15:53;4.07;;;2.08;;
19024;SDS011;9645;51.448;6.260;2022-10-16T05:18:20;7.10;;;2.22;;
19024;SDS011;9645;51.448;6.260;2022-10-16T05:20:47;3.90;;;1.80;;
19024;SDS011;9645;51.448;6.260;2022-10-16T05:23:15;6.30;;;2.15;;
19024;SDS011;9645;51.448;6.260;2022-10-16T05:25:42;2.28;;;2.10;;
19024;SDS011;9645;51.448;6.260;2022-10-16T05:28:09;3.75;;;1.83;;
19024;SDS011;9645;51.448;6.260;2022-10-16T05:30:36;2.70;;;2.50;;
19024;SDS011;9645;51.448;6.260;2022-10-16T05:33:03;2.83;;;1.70;;
19024;SDS011;9645;51.448;6.260;2022-10-16T05:35:30;3.78;;;2.15;;
19024;SDS011;9645;51.448;6.260;2022-10-16T05:37:57;6.50;;;1.95;;
19024;SDS011;9645;51.448;6.260;2022-10-16T05:40:26;8.82;;;2.45;;
19024;SDS011;9645;51.448;6.260;2022-10-16T05:42:54;5.85;;;2.20;;
19024;SDS011;9645;51.448;6.260;2022-10-16T05:45:21;2.42;;;2.22;;
19024;SDS011;9645;51.448;6.260;2022-10-16T05:47:48;2.67;;;2.22;;
19024;SDS011;9645;51.448;6.260;2022-10-16T05:50:16;9.68;;;2.05;;
19024;SDS011;9645;51.448;6.260;2022-10-16T05:52:43;7.53;;;2.78;;
19024;SDS011;9645;51.448;6.260;2022-10-16T05:55:10;2.60;;;2.22;;
19024;SDS011;9645;51.448;6.260;2022-10-16T05:57:38;3.08;;;2.20;;
19024;SDS011;9645;51.448;6.260;2022-10-16T06:00:05;3.20;;;2.40;;
19024;SDS011;9645;51.448;6.260;2022-10-16T06:02:33;3.13;;;2.05;;
19024;SDS011;9645;51.448;6.260;2022-10-16T06:05:00;8.80;;;2.60;;
19024;SDS011;9645;51.448;6.260;2022-10-16T06:07:27;3.17;;;2.20;;
19024;SDS011;9645;51.448;6.260;2022-10-16T06:09:54;3.20;;;2.50;;
19024;SDS011;9645;51.448;6.260;2022-10-16T06:12:21;6.72;;;2.70;;
19024;SDS011;9645;51.448;6.260;2022-10-16T06:14:49;3.33;;;2.88;;
19024;SDS011;9645;51.448;6.260;2022-10-16T06:17:16;4.70;;;2.90;;
19024;SDS011;9645;51.448;6.260;2022-10-16T06:19:43;5.65;;;2.75;;
19024;SDS011;9645;51.448;6.260;2022-10-16T06:22:10;4.13;;;2.22;;
19024;SDS011;9645;51.448;6.260;2022-10-16T06:24:37;3.63;;;2.80;;
19024;SDS011;9645;51.448;6.260;2022-10-16T06:27:04;5.65;;;3.00;;
19024;SDS011;9645;51.448;6.260;2022-10-16T06:29:31;4.82;;;2.97;;
19024;SDS011;9645;51.448;6.260;2022-10-16T06:31:59;4.05;;;2.70;;
19024;SDS011;9645;51.448;6.260;2022-10-16T06:34:26;3.60;;;2.75;;
19024;SDS011;9645;51.448;6.260;2022-10-16T06:36:53;6.60;;;2.90;;
19024;SDS011;9645;51.448;6.260;2022-10-16T06:39:20;3.92;;;2.85;;
19024;SDS011;9645;51.448;6.260;2022-10-16T06:41:47;6.55;;;3.28;;
19024;SDS011;9645;51.448;6.260;2022-10-16T06:44:14;4.35;;;3.35;;
19024;SDS011;9645;51.448;6.260;2022-10-16T06:46:41;5.88;;;3.47;;
19024;SDS011;9645;51.448;6.260;2022-10-16T06:49:10;6.55;;;3.70;;
19024;SDS011;9645;51.448;6.260;2022-10-16T06:51:36;5.03;;;3.38;;
19024;SDS011;9645;51.448;6.260;2022-10-16T06:54:06;8.65;;;5.25;;
19024;SDS011;9645;51.448;6.260;2022-10-16T06:56:33;7.97;;;3.35;;
19024;SDS011;9645;51.448;6.260;2022-10-16T06:59:00;7.10;;;3.47;;
19024;SDS011;9645;51.448;6.260;2022-10-16T07:01:28;6.65;;;3.28;;
19024;SDS011;9645;51.448;6.260;2022-10-16T07:03:55;7.25;;;3.75;;
19024;SDS011;9645;51.448;6.260;2022-10-16T07:06:24;5.18;;;3.67;;
19024;SDS011;9645;51.448;6.260;2022-10-16T07:08:52;5.88;;;3.50;;
19024;SDS011;9645;51.448;6.260;2022-10-16T07:11:20;5.78;;;3.65;;
19024;SDS011;9645;51.448;6.260;2022-10-16T07:13:48;7.13;;;4.10;;
19024;SDS011;9645;51.448;6.260;2022-10-16T07:16:17;8.27;;;3.80;;
19024;SDS011;9645;51.448;6.260;2022-10-16T07:18:45;13.73;;;3.77;;
19024;SDS011;9645;51.448;6.260;2022-10-16T07:21:14;8.68;;;3.75;;
19024;SDS011;9645;51.448;6.260;2022-10-16T07:23:44;7.97;;;3.20;;
19024;SDS011;9645;51.448;6.260;2022-10-16T07:26:11;6.57;;;3.53;;
19024;SDS011;9645;51.448;6.260;2022-10-16T07:28:38;4.50;;;3.33;;
19024;SDS011;9645;51.448;6.260;2022-10-16T07:31:06;4.17;;;3.30;;
19024;SDS011;9645;51.448;6.260;2022-10-16T07:33:36;7.23;;;2.90;;
19024;SDS011;9645;51.448;6.260;2022-10-16T07:36:04;8.73;;;2.80;;
19024;SDS011;9645;51.448;6.260;2022-10-16T07:38:32;2.20;;;2.10;;
19024;SDS011;9645;51.448;6.260;2022-10-16T07:41:01;4.23;;;2.60;;
19024;SDS011;9645;51.448;6.260;2022-10-16T07:43:30;4.53;;;2.70;;
19024;SDS011;9645;51.448;6.260;2022-10-16T07:45:57;3.73;;;2.20;;
19024;SDS011;9645;51.448;6.260;2022-10-16T07:48:26;2.00;;;1.80;;
19024;SDS011;9645;51.448;6.260;2022-10-16T07:50:56;7.03;;;2.63;;
19024;SDS011;9645;51.448;6.260;2022-10-16T07:53:24;2.97;;;1.90;;
19024;SDS011;9645;51.448;6.260;2022-10-16T07:55:51;4.93;;;2.07;;
19024;SDS011;9645;51.448;6.260;2022-10-16T07:58:20;6.33;;;1.90;;
19024;SDS011;9645;51.448;6.260;2022-10-16T08:00:47;3.93;;;1.93;;
19024;SDS011;9645;51.448;6.260;2022-10-16T08:03:14;2.13;;;1.83;;
19024;SDS011;9645;51.448;6.260;2022-10-16T08:05:41;2.07;;;1.87;;
19024;SDS011;9645;51.448;6.260;2022-10-16T08:08:11;2.40;;;2.20;;
19024;SDS011;9645;51.448;6.260;2022-10-16T08:10:39;2.60;;;2.00;;
19024;SDS011;9645;51.448;6.260;2022-10-16T08:16:08;3.30;;;1.73;;
19024;SDS011;9645;51.448;6.260;2022-10-16T08:18:36;5.20;;;2.07;;
19024;SDS011;9645;51.448;6.260;2022-10-16T08:21:04;7.90;;;1.80;;
19024;SDS011;9645;51.448;6.260;2022-10-16T08:23:33;7.20;;;1.73;;
19024;SDS011;9645;51.448;6.260;2022-10-16T08:26:04;1.87;;;1.77;;
19024;SDS011;9645;51.448;6.260;2022-10-16T08:28:33;1.50;;;1.40;;
19024;SDS011;9645;51.448;6.260;2022-10-16T08:31:07;2.00;;;1.80;;
19024;SDS011;9645;51.448;6.260;2022-10-16T08:33:35;3.43;;;1.40;;
19024;SDS011;9645;51.448;6.260;2022-10-16T08:36:03;5.70;;;2.00;;
19024;SDS011;9645;51.448;6.260;2022-10-16T08:38:30;5.53;;;1.90;;
19024;SDS011;9645;51.448;6.260;2022-10-16T08:41:02;4.70;;;1.73;;
19024;SDS011;9645;51.448;6.260;2022-10-16T08:43:47;2.40;;;1.70;;
19024;SDS011;9645;51.448;6.260;2022-10-16T08:46:21;2.20;;;1.70;;
19024;SDS011;9645;51.448;6.260;2022-10-16T08:48:53;2.90;;;1.77;;
19024;SDS011;9645;51.448;6.260;2022-10-16T08:51:22;2.60;;;1.60;;
19024;SDS011;9645;51.448;6.260;2022-10-16T08:53:52;1.30;;;1.20;;
19024;SDS011;9645;51.448;6.260;2022-10-16T08:56:21;4.47;;;1.67;;
19024;SDS011;9645;51.448;6.260;2022-10-16T08:58:51;2.93;;;1.63;;
19024;SDS011;9645;51.448;6.260;2022-10-16T09:01:19;3.30;;;1.30;;
19024;SDS011;9645;51.448;6.260;2022-10-16T09:03:55;1.60;;;1.50;;
19024;SDS011;9645;51.448;6.260;2022-10-16T09:06:53;1.10;;;1.10;;
19024;SDS011;9645;51.448;6.260;2022-10-16T09:09:28;2.30;;;1.40;;
19024;SDS011;9645;51.448;6.260;2022-10-16T09:12:12;1.70;;;1.50;;
19024;SDS011;9645;51.448;6.260;2022-10-16T09:14:50;2.90;;;1.67;;
19024;SDS011;9645;51.448;6.260;2022-10-16T09:17:32;1.40;;;1.30;;
19024;SDS011;9645;51.448;6.260;2022-10-16T09:20:14;4.40;;;1.57;;
19024;SDS011;9645;51.448;6.260;2022-10-16T09:22:47;2.20;;;1.10;;
19024;SDS011;9645;51.448;6.260;2022-10-16T09:25:15;5.17;;;1.47;;
19024;SDS011;9645;51.448;6.260;2022-10-16T09:27:45;4.67;;;1.40;;
19024;SDS011;9645;51.448;6.260;2022-10-16T09:30:15;1.77;;;1.40;;
19024;SDS011;9645;51.448;6.260;2022-10-16T09:32:46;4.10;;;1.43;;
19024;SDS011;9645;51.448;6.260;2022-10-16T09:35:16;2.00;;;1.37;;
19024;SDS011;9645;51.448;6.260;2022-10-16T09:37:47;2.13;;;1.50;;
19024;SDS011;9645;51.448;6.260;2022-10-16T09:40:24;3.77;;;1.27;;
19024;SDS011;9645;51.448;6.260;2022-10-16T09:42:54;2.00;;;1.70;;
19024;SDS011;9645;51.448;6.260;2022-10-16T09:45:28;2.00;;;1.40;;
19024;SDS011;9645;51.448;6.260;2022-10-16T09:47:55;4.97;;;1.30;;
19024;SDS011;9645;51.448;6.260;2022-10-16T09:50:23;4.23;;;1.50;;
19024;SDS011;9645;51.448;6.260;2022-10-16T09:53:02;2.40;;;1.47;;
19024;SDS011;9645;51.448;6.260;2022-10-16T09:55:30;5.30;;;1.20;;
19024;SDS011;9645;51.448;6.260;2022-10-16T09:57:57;5.43;;;1.37;;
19024;SDS011;9645;51.448;6.260;2022-10-16T10:00:24;1.73;;;1.00;;
19024;SDS011;9645;51.448;6.260;2022-10-16T10:02:53;2.70;;;1.50;;
19024;SDS011;9645;51.448;6.260;2022-10-16T10:05:21;3.00;;;1.00;;
19024;SDS011;9645;51.448;6.260;2022-10-16T10:07:54;2.57;;;1.20;;
19024;SDS011;9645;51.448;6.260;2022-10-16T10:10:24;1.87;;;1.10;;
19024;SDS011;9645;51.448;6.260;2022-10-16T10:12:52;5.00;;;1.10;;
19024;SDS011;9645;51.448;6.260;2022-10-16T10:15:20;1.83;;;1.20;;
19024;SDS011;9645;51.448;6.260;2022-10-16T10:17:49;2.20;;;1.10;;
19024;SDS011;9645;51.448;6.260;2022-10-16T10:20:26;3.87;;;1.30;;
19024;SDS011;9645;51.448;6.260;2022-10-16T10:22:54;2.87;;;1.20;;
19024;SDS011;9645;51.448;6.260;2022-10-16T10:25:34;3.50;;;1.00;;
19024;SDS011;9645;51.448;6.260;2022-10-16T10:31:14;4.40;;;1.33;;
19024;SDS011;9645;51.448;6.260;2022-10-16T10:33:49;5.77;;;1.63;;
19024;SDS011;9645;51.448;6.260;2022-10-16T10:36:32;2.50;;;1.10;;
19024;SDS011;9645;51.448;6.260;2022-10-16T10:39:04;2.63;;;1.00;;
19024;SDS011;9645;51.448;6.260;2022-10-16T10:47:24;5.70;;;0.93;;
19024;SDS011;9645;51.448;6.260;2022-10-16T10:50:01;3.03;;;0.93;;
19024;SDS011;9645;51.448;6.260;2022-10-16T10:52:47;2.10;;;1.30;;
19024;SDS011;9645;51.448;6.260;2022-10-16T10:55:26;17.53;;;2.40;;
19024;SDS011;9645;51.448;6.260;2022-10-16T11:01:08;3.47;;;1.50;;
19024;SDS011;9645;51.448;6.260;2022-10-16T11:03:44;1.40;;;1.00;;
19024;SDS011;9645;51.448;6.260;2022-10-16T11:06:28;4.17;;;1.10;;
19024;SDS011;9645;51.448;6.260;2022-10-16T11:09:02;1.80;;;0.80;;
19024;SDS011;9645;51.448;6.260;2022-10-16T11:11:38;5.93;;;1.07;;
19024;SDS011;9645;51.448;6.260;2022-10-16T11:14:11;2.67;;;1.33;;
19024;SDS011;9645;51.448;6.260;2022-10-16T11:16:44;1.07;;;0.93;;
19024;SDS011;9645;51.448;6.260;2022-10-16T11:19:20;3.37;;;1.17;;
19024;SDS011;9645;51.448;6.260;2022-10-16T11:21:55;3.50;;;1.03;;
19024;SDS011;9645;51.448;6.260;2022-10-16T11:24:30;1.70;;;1.00;;
19024;SDS011;9645;51.448;6.260;2022-10-16T11:27:04;6.27;;;1.93;;
19024;SDS011;9645;51.448;6.260;2022-10-16T11:29:35;4.10;;;1.10;;
19024;SDS011;9645;51.448;6.260;2022-10-16T11:32:16;6.30;;;1.27;;
19024;SDS011;9645;51.448;6.260;2022-10-16T11:34:49;4.73;;;1.50;;
19024;SDS011;9645;51.448;6.260;2022-10-16T11:37:24;4.83;;;1.40;;
19024;SDS011;9645;51.448;6.260;2022-10-16T11:39:54;4.33;;;1.63;;
19024;SDS011;9645;51.448;6.260;2022-10-16T11:42:30;2.73;;;1.90;;
19024;SDS011;9645;51.448;6.260;2022-10-16T11:45:07;4.27;;;1.03;;
19024;SDS011;9645;51.448;6.260;2022-10-16T11:47:44;1.13;;;1.03;;
19024;SDS011;9645;51.448;6.260;2022-10-16T11:50:17;2.50;;;1.40;;
19024;SDS011;9645;51.448;6.260;2022-10-16T11:52:51;1.13;;;1.00;;
19024;SDS011;9645;51.448;6.260;2022-10-16T11:55:28;2.77;;;1.00;;
19024;SDS011;9645;51.448;6.260;2022-10-16T11:58:01;3.83;;;1.10;;
19024;SDS011;9645;51.448;6.260;2022-10-16T12:00:33;2.00;;;1.10;;
19024;SDS011;9645;51.448;6.260;2022-10-16T12:03:08;2.30;;;1.20;;
19024;SDS011;9645;51.448;6.260;2022-10-16T12:05:50;1.83;;;0.97;;
19024;SDS011;9645;51.448;6.260;2022-10-16T12:08:25;2.70;;;1.00;;
19024;SDS011;9645;51.448;6.260;2022-10-16T12:11:05;2.20;;;1.20;;
19024;SDS011;9645;51.448;6.260;2022-10-16T12:13:34;4.73;;;1.10;;
19024;SDS011;9645;51.448;6.260;2022-10-16T12:16:06;5.57;;;1.20;;
19024;SDS011;9645;51.448;6.260;2022-10-16T12:18:45;3.53;;;1.27;;
19024;SDS011;9645;51.448;6.260;2022-10-16T12:21:14;4.33;;;1.00;;
19024;SDS011;9645;51.448;6.260;2022-10-16T12:23:46;3.67;;;1.03;;
19024;SDS011;9645;51.448;6.260;2022-10-16T12:26:24;1.23;;;1.13;;
19024;SDS011;9645;51.448;6.260;2022-10-16T12:28:52;1.27;;;1.10;;
19024;SDS011;9645;51.448;6.260;2022-10-16T12:31:20;3.90;;;1.07;;
19024;SDS011;9645;51.448;6.260;2022-10-16T12:33:57;1.20;;;1.10;;
19024;SDS011;9645;51.448;6.260;2022-10-16T12:36:28;0.90;;;0.90;;
19024;SDS011;9645;51.448;6.260;2022-10-16T12:38:58;3.43;;;1.13;;
19024;SDS011;9645;51.448;6.260;2022-10-16T12:41:28;1.40;;;0.80;;
19024;SDS011;9645;51.448;6.260;2022-10-16T12:43:56;0.90;;;0.80;;
19024;SDS011;9645;51.448;6.260;2022-10-16T12:46:37;1.67;;;0.90;;
19024;SDS011;9645;51.448;6.260;2022-10-16T12:49:06;1.50;;;1.10;;
19024;SDS011;9645;51.448;6.260;2022-10-16T12:51:47;2.63;;;0.80;;
19024;SDS011;9645;51.448;6.260;2022-10-16T12:54:14;1.00;;;0.90;;
19024;SDS011;9645;51.448;6.260;2022-10-16T12:56:48;1.27;;;0.80;;
19024;SDS011;9645;51.448;6.260;2022-10-16T12:59:27;2.50;;;1.60;;
19024;SDS011;9645;51.448;6.260;2022-10-16T13:02:11;1.03;;;0.70;;
19024;SDS011;9645;51.448;6.260;2022-10-16T13:05:19;1.80;;;1.00;;
19024;SDS011;9645;51.448;6.260;2022-10-16T13:07:55;4.53;;;1.97;;
19024;SDS011;9645;51.448;6.260;2022-10-16T13:10:31;4.73;;;1.10;;
19024;SDS011;9645;51.448;6.260;2022-10-16T13:13:10;4.20;;;0.90;;
19024;SDS011;9645;51.448;6.260;2022-10-16T13:15:57;3.80;;;1.13;;
19024;SDS011;9645;51.448;6.260;2022-10-16T13:18:39;2.60;;;1.23;;
19024;SDS011;9645;51.448;6.260;2022-10-16T13:21:18;2.60;;;1.40;;
19024;SDS011;9645;51.448;6.260;2022-10-16T13:23:55;3.70;;;1.20;;
19024;SDS011;9645;51.448;6.260;2022-10-16T13:26:31;2.10;;;1.17;;
19024;SDS011;9645;51.448;6.260;2022-10-16T13:29:08;0.90;;;0.90;;
19024;SDS011;9645;51.448;6.260;2022-10-16T13:31:36;6.13;;;1.20;;
19024;SDS011;9645;51.448;6.260;2022-10-16T13:34:05;3.53;;;1.20;;
19024;SDS011;9645;51.448;6.260;2022-10-16T13:36:42;1.67;;;1.20;;
19024;SDS011;9645;51.448;6.260;2022-10-16T13:39:12;2.60;;;1.27;;
19024;SDS011;9645;51.448;6.260;2022-10-16T13:41:42;8.10;;;1.60;;
19024;SDS011;9645;51.448;6.260;2022-10-16T13:44:14;1.80;;;1.00;;
19024;SDS011;9645;51.448;6.260;2022-10-16T13:46:44;1.77;;;1.43;;
19024;SDS011;9645;51.448;6.260;2022-10-16T13:49:13;1.00;;;1.00;;
19024;SDS011;9645;51.448;6.260;2022-10-16T13:51:41;5.10;;;1.10;;
19024;SDS011;9645;51.448;6.260;2022-10-16T13:54:19;3.43;;;1.13;;
19024;SDS011;9645;51.448;6.260;2022-10-16T13:56:46;5.43;;;1.00;;
19024;SDS011;9645;51.448;6.260;2022-10-16T13:59:23;2.83;;;1.17;;
19024;SDS011;9645;51.448;6.260;2022-10-16T14:01:51;4.20;;;1.03;;
19024;SDS011;9645;51.448;6.260;2022-10-16T14:04:21;1.37;;;1.20;;
19024;SDS011;9645;51.448;6.260;2022-10-16T14:06:49;2.67;;;1.00;;
19024;SDS011;9645;51.448;6.260;2022-10-16T14:09:20;5.90;;;1.40;;
19024;SDS011;9645;51.448;6.260;2022-10-16T14:11:51;1.00;;;0.97;;
19024;SDS011;9645;51.448;6.260;2022-10-16T14:14:23;1.10;;;0.90;;
19024;SDS011;9645;51.448;6.260;2022-10-16T14:16:50;1.90;;;0.90;;
19024;SDS011;9645;51.448;6.260;2022-10-16T14:19:18;0.90;;;0.90;;
19024;SDS011;9645;51.448;6.260;2022-10-16T14:21:50;2.73;;;1.00;;
19024;SDS011;9645;51.448;6.260;2022-10-16T14:24:27;2.40;;;1.10;;
19024;SDS011;9645;51.448;6.260;2022-10-16T14:26:57;5.03;;;1.17;;
19024;SDS011;9645;51.448;6.260;2022-10-16T14:29:27;3.83;;;1.17;;
19024;SDS011;9645;51.448;6.260;2022-10-16T14:31:57;4.43;;;1.47;;
19024;SDS011;9645;51.448;6.260;2022-10-16T14:34:27;1.33;;;1.00;;
19024;SDS011;9645;51.448;6.260;2022-10-16T14:36:56;1.37;;;1.17;;
19024;SDS011;9645;51.448;6.260;2022-10-16T14:39:27;1.10;;;1.00;;
19024;SDS011;9645;51.448;6.260;2022-10-16T14:41:55;6.13;;;0.97;;
19024;SDS011;9645;51.448;6.260;2022-10-16T14:44:27;2.67;;;1.10;;
19024;SDS011;9645;51.448;6.260;2022-10-16T14:46:57;3.93;;;1.00;;
19024;SDS011;9645;51.448;6.260;2022-10-16T14:49:25;2.67;;;1.30;;
19024;SDS011;9645;51.448;6.260;2022-10-16T14:51:53;2.00;;;1.00;;
19024;SDS011;9645;51.448;6.260;2022-10-16T14:54:20;2.53;;;1.00;;
19024;SDS011;9645;51.448;6.260;2022-10-16T14:56:48;3.40;;;1.20;;
19024;SDS011;9645;51.448;6.260;2022-10-16T14:59:19;4.43;;;1.53;;
19024;SDS011;9645;51.448;6.260;2022-10-16T15:01:49;1.13;;;1.10;;
19024;SDS011;9645;51.448;6.260;2022-10-16T15:04:16;3.07;;;1.60;;
19024;SDS011;9645;51.448;6.260;2022-10-16T15:06:43;1.30;;;1.20;;
19024;SDS011;9645;51.448;6.260;2022-10-16T15:09:11;3.70;;;1.60;;
19024;SDS011;9645;51.448;6.260;2022-10-16T15:11:38;9.00;;;2.03;;
19024;SDS011;9645;51.448;6.260;2022-10-16T15:14:05;1.23;;;1.13;;
19024;SDS011;9645;51.448;6.260;2022-10-16T15:16:32;4.27;;;1.50;;
19024;SDS011;9645;51.448;6.260;2022-10-16T15:19:00;1.60;;;1.40;;
19024;SDS011;9645;51.448;6.260;2022-10-16T15:21:28;4.27;;;1.53;;
19024;SDS011;9645;51.448;6.260;2022-10-16T15:23:56;7.50;;;2.00;;
19024;SDS011;9645;51.448;6.260;2022-10-16T15:26:25;2.90;;;1.80;;
19024;SDS011;9645;51.448;6.260;2022-10-16T15:28:53;8.30;;;2.20;;
19024;SDS011;9645;51.448;6.260;2022-10-16T15:31:20;2.60;;;1.70;;
19024;SDS011;9645;51.448;6.260;2022-10-16T15:33:49;1.97;;;1.43;;